Terminal Aerodrome Forecast
Issued by NWS Central Illinois

Home | Current Version | Previous Version | Text Only | Print | Product List | Glossary On
Versions: 1 2 3 4 5 6 7 8 9 10 11 12 13 14 15 16 17 18
000
FTUS43 KILX 300500
TAFPIA
TAF
KPIA 300530Z 3006/3106 20008KT P6SM VCSH BKN050
     FM301600 23011KT P6SM VCTS BKN035CB
     FM310000 21005KT P6SM BKN040=

USA.gov is the U.S. government's official web portal to all federal, state and local government web resources and services.